createdAt,value
2018-12-06T00:00:30.594Z,14.40
2018-12-06T00:02:58.121Z,14.73
2018-12-06T00:05:25.779Z,14.50
2018-12-06T00:08:05.098Z,14.83
2018-12-06T00:10:32.677Z,13.77
2018-12-06T00:13:00.172Z,14.13
2018-12-06T00:15:27.835Z,13.70
2018-12-06T00:17:55.363Z,13.90
2018-12-06T00:20:22.921Z,15.57
2018-12-06T00:22:50.462Z,14.50
2018-12-06T00:25:17.950Z,14.00
2018-12-06T00:27:45.429Z,15.60
2018-12-06T00:30:24.733Z,13.60
2018-12-06T00:32:52.271Z,13.43
2018-12-06T00:35:20.431Z,14.77
2018-12-06T00:37:47.926Z,13.03
2018-12-06T00:40:15.437Z,13.90
2018-12-06T00:42:42.966Z,16.40
2018-12-06T00:45:10.550Z,14.83
2018-12-06T00:47:38.080Z,14.27
2018-12-06T00:50:05.582Z,15.43
2018-12-06T00:52:34.625Z,16.10
2018-12-06T00:55:04.121Z,14.83
2018-12-06T00:57:32.624Z,15.03
2018-12-06T01:00:02.022Z,14.00
2018-12-06T01:02:30.306Z,16.43
2018-12-06T01:05:00.241Z,15.23
2018-12-06T01:07:29.928Z,15.63
2018-12-06T01:09:59.354Z,16.87
2018-12-06T01:12:26.895Z,15.87
2018-12-06T01:14:54.410Z,16.93
2018-12-06T01:17:21.901Z,16.60
2018-12-06T01:19:49.437Z,17.80
2018-12-06T01:22:16.934Z,16.53
2018-12-06T01:24:44.449Z,17.80
2018-12-06T01:27:12.025Z,19.03
2018-12-06T01:29:39.560Z,18.20
2018-12-06T01:32:07.213Z,17.90
2018-12-06T01:34:35.458Z,17.23
2018-12-06T01:37:03.067Z,18.63
2018-12-06T01:39:30.628Z,18.50
2018-12-06T01:41:58.146Z,14.93
2018-12-06T01:44:25.668Z,17.80
2018-12-06T01:46:53.314Z,18.70
2018-12-06T01:49:20.818Z,18.17
2018-12-06T01:51:48.326Z,16.73
2018-12-06T01:54:15.884Z,16.63
2018-12-06T01:56:43.397Z,17.93
2018-12-06T01:59:11.024Z,17.10
2018-12-06T02:01:38.580Z,17.40
2018-12-06T02:04:06.109Z,16.87
2018-12-06T02:06:33.617Z,15.90
2018-12-06T02:09:01.122Z,15.57
2018-12-06T02:11:28.641Z,15.00
2018-12-06T02:13:56.136Z,16.10
2018-12-06T02:16:23.682Z,15.43
2018-12-06T02:18:51.306Z,14.70
2018-12-06T02:21:19.026Z,14.60
2018-12-06T02:23:46.545Z,14.77
2018-12-06T02:26:14.081Z,16.70
2018-12-06T02:28:41.640Z,16.87
2018-12-06T02:31:09.251Z,15.20
2018-12-06T02:33:36.834Z,17.70
2018-12-06T02:36:04.324Z,16.30
2018-12-06T02:38:31.831Z,16.40
2018-12-06T02:40:59.382Z,17.17
2018-12-06T02:43:26.949Z,15.90
2018-12-06T02:45:54.473Z,16.27
2018-12-06T02:48:21.966Z,16.80
2018-12-06T02:50:49.839Z,17.10
2018-12-06T02:53:17.423Z,16.90
2018-12-06T02:55:44.965Z,16.50
2018-12-06T02:58:12.527Z,15.60
2018-12-06T03:00:40.071Z,16.97
2018-12-06T03:03:07.704Z,16.23
2018-12-06T03:05:35.462Z,17.87
2018-12-06T03:08:03.007Z,20.13
2018-12-06T03:10:30.516Z,17.80
2018-12-06T03:12:58.151Z,19.00
2018-12-06T03:15:25.730Z,18.60
2018-12-06T03:17:53.273Z,21.40
2018-12-06T03:20:20.813Z,19.73
2018-12-06T03:22:48.382Z,19.03
2018-12-06T03:25:15.909Z,19.80
2018-12-06T03:27:43.466Z,19.23
2018-12-06T03:30:11.037Z,19.50
2018-12-06T03:32:38.761Z,20.00
2018-12-06T03:35:06.435Z,19.80
2018-12-06T03:37:33.996Z,20.57
2018-12-06T03:40:01.540Z,19.93
2018-12-06T03:42:29.068Z,20.60
2018-12-06T03:44:56.593Z,21.20
2018-12-06T03:47:24.179Z,21.60
2018-12-06T03:49:51.685Z,18.80
2018-12-06T03:52:19.211Z,20.93
2018-12-06T03:54:46.768Z,24.40
2018-12-06T03:57:14.510Z,21.70
2018-12-06T03:59:42.022Z,21.93
2018-12-06T04:02:09.522Z,22.67
2018-12-06T04:04:37.031Z,23.13
2018-12-06T04:07:04.565Z,24.10
2018-12-06T04:09:32.148Z,23.17
2018-12-06T04:11:59.644Z,24.13
2018-12-06T04:14:27.207Z,23.70
2018-12-06T04:16:54.721Z,23.53
2018-12-06T04:19:22.237Z,23.03
2018-12-06T04:21:49.935Z,25.23
2018-12-06T04:24:17.493Z,24.47
2018-12-06T04:26:45.094Z,23.60
2018-12-06T04:29:12.659Z,22.73
2018-12-06T04:31:40.302Z,23.63
2018-12-06T04:34:07.785Z,23.80
2018-12-06T04:36:35.281Z,24.60
2018-12-06T04:39:04.826Z,24.30
2018-12-06T04:41:32.542Z,27.00
2018-12-06T04:44:00.056Z,24.13
2018-12-06T04:46:27.555Z,26.13
2018-12-06T04:48:55.414Z,27.27
2018-12-06T04:51:22.942Z,25.70
2018-12-06T04:53:50.430Z,25.70
2018-12-06T04:56:17.934Z,26.40
2018-12-06T04:58:45.490Z,27.37
2018-12-06T05:01:13.118Z,26.57
2018-12-06T05:03:40.677Z,25.57
2018-12-06T05:06:08.227Z,26.33
2018-12-06T05:08:35.738Z,26.20
2018-12-06T05:11:03.225Z,26.50
2018-12-06T05:13:30.832Z,26.10
2018-12-06T05:15:58.314Z,25.00
2018-12-06T05:18:25.801Z,25.80
2018-12-06T05:20:53.308Z,25.80
2018-12-06T05:23:20.821Z,28.40
2018-12-06T05:25:48.425Z,28.67
2018-12-06T05:28:15.998Z,26.73
2018-12-06T05:30:43.555Z,26.20
2018-12-06T05:33:11.080Z,26.50
2018-12-06T05:35:38.606Z,26.80
2018-12-06T05:38:06.092Z,26.90
2018-12-06T05:40:33.631Z,25.90
2018-12-06T05:43:01.129Z,26.23
2018-12-06T05:45:28.659Z,26.70
2018-12-06T05:47:56.225Z,26.50
2018-12-06T05:50:23.777Z,25.87
2018-12-06T05:52:51.323Z,28.60
2018-12-06T05:55:18.839Z,27.53
2018-12-06T05:57:48.183Z,25.40
2018-12-06T06:00:16.029Z,27.10
2018-12-06T06:02:43.531Z,26.07
2018-12-06T06:05:11.018Z,25.80
2018-12-06T06:07:38.594Z,27.57
2018-12-06T06:10:06.098Z,28.50
2018-12-06T06:12:33.616Z,29.10
2018-12-06T06:15:01.165Z,28.10
2018-12-06T06:17:28.724Z,27.67
2018-12-06T06:19:56.217Z,27.80
2018-12-06T06:22:24.112Z,27.83
2018-12-06T06:24:51.604Z,29.10
2018-12-06T06:27:19.102Z,28.33
2018-12-06T06:29:46.774Z,28.80
2018-12-06T06:32:14.287Z,26.37
2018-12-06T06:34:41.776Z,25.63
2018-12-06T06:37:09.362Z,28.87
2018-12-06T06:39:36.879Z,27.77
2018-12-06T06:42:04.409Z,29.67
2018-12-06T06:44:31.943Z,28.87
2018-12-06T06:46:59.446Z,30.10
2018-12-06T06:49:27.034Z,30.30
2018-12-06T06:51:54.548Z,30.17
2018-12-06T06:54:22.068Z,30.63
2018-12-06T06:56:49.641Z,34.50
2018-12-06T06:59:17.125Z,32.43
2018-12-06T07:01:44.715Z,30.30
2018-12-06T07:04:12.248Z,32.63
2018-12-06T07:06:39.758Z,32.07
2018-12-06T07:09:08.262Z,30.67
2018-12-06T07:11:36.251Z,30.57
2018-12-06T07:14:04.229Z,30.47
2018-12-06T07:16:31.766Z,30.53
2018-12-06T07:18:59.322Z,30.20
2018-12-06T07:21:26.938Z,29.67
2018-12-06T07:23:54.458Z,28.60
2018-12-06T07:26:21.963Z,27.27
2018-12-06T07:28:49.476Z,26.77
2018-12-06T07:31:16.998Z,27.07
2018-12-06T07:33:44.645Z,27.03
2018-12-06T07:36:12.128Z,28.47
2018-12-06T07:38:39.636Z,27.47
2018-12-06T07:41:07.158Z,29.97
2018-12-06T07:43:34.677Z,29.30
2018-12-06T07:46:08.575Z,28.07
2018-12-06T07:48:36.202Z,28.27
2018-12-06T07:51:03.772Z,28.43
2018-12-06T07:53:31.384Z,29.27
2018-12-06T07:55:58.908Z,30.50
2018-12-06T07:58:26.463Z,32.20
2018-12-06T08:00:54.034Z,30.20
2018-12-06T08:03:21.527Z,30.87
2018-12-06T08:05:49.213Z,32.57
2018-12-06T08:08:16.746Z,30.30
2018-12-06T08:10:44.256Z,30.23
2018-12-06T08:13:11.768Z,30.70
2018-12-06T08:15:39.395Z,33.53
2018-12-06T08:18:07.134Z,32.17
2018-12-06T08:20:34.680Z,32.50
2018-12-06T08:23:02.177Z,33.33
2018-12-06T08:25:29.742Z,32.93
2018-12-06T08:27:57.262Z,32.07
2018-12-06T08:30:24.788Z,35.67
2018-12-06T08:32:52.313Z,35.07
2018-12-06T08:35:19.892Z,35.67
2018-12-06T08:37:47.395Z,36.13
2018-12-06T08:40:14.922Z,35.50
2018-12-06T08:42:45.718Z,34.90
2018-12-06T08:45:12.043Z,36.57
2018-12-06T08:47:39.852Z,35.87
2018-12-06T08:50:07.346Z,35.63
2018-12-06T08:52:34.965Z,40.60
2018-12-06T08:55:02.456Z,37.43
2018-12-06T08:57:29.956Z,37.27
2018-12-06T08:59:57.634Z,39.17
2018-12-06T09:02:30.973Z,38.00
2018-12-06T09:04:58.617Z,36.67
2018-12-06T09:07:26.335Z,43.47
2018-12-06T09:09:53.836Z,40.67
2018-12-06T09:12:21.336Z,40.20
2018-12-06T09:14:48.832Z,39.63
2018-12-06T09:17:16.369Z,42.57
2018-12-06T09:19:43.853Z,39.87
2018-12-06T09:22:11.354Z,41.47
2018-12-06T09:24:38.967Z,38.50
2018-12-06T09:27:06.473Z,37.73
2018-12-06T09:29:33.961Z,40.67
2018-12-06T09:32:01.494Z,38.33
2018-12-06T09:34:28.981Z,35.03
2018-12-06T09:36:56.480Z,37.63
2018-12-06T09:39:23.991Z,38.90
2018-12-06T09:41:51.495Z,38.67
2018-12-06T09:44:19.077Z,42.57
2018-12-06T09:46:46.593Z,41.33
2018-12-06T09:49:14.131Z,40.57
2018-12-06T09:51:41.651Z,42.77
2018-12-06T09:54:09.158Z,38.70
2018-12-06T09:56:36.674Z,43.07
2018-12-06T09:59:04.220Z,42.10
2018-12-06T10:01:31.817Z,42.40
2018-12-06T10:03:59.303Z,46.53
2018-12-06T10:06:26.793Z,47.47
2018-12-06T10:08:54.307Z,47.60
2018-12-06T10:11:21.880Z,45.70
2018-12-06T10:13:49.557Z,44.20
2018-12-06T10:16:17.048Z,44.97
2018-12-06T10:18:44.542Z,45.73
2018-12-06T10:21:12.056Z,45.77
2018-12-06T10:23:39.641Z,43.07
2018-12-06T10:26:07.737Z,43.60
2018-12-06T10:28:35.283Z,43.70
2018-12-06T10:31:02.828Z,43.63
2018-12-06T10:33:30.326Z,45.00
2018-12-06T10:35:57.971Z,40.90
2018-12-06T10:38:25.569Z,40.80
2018-12-06T10:40:53.560Z,40.63
2018-12-06T10:43:21.105Z,38.13
2018-12-06T10:45:48.668Z,39.83
2018-12-06T10:48:16.257Z,40.40
2018-12-06T10:50:43.781Z,36.70
2018-12-06T10:53:11.274Z,39.73
2018-12-06T10:55:38.817Z,40.70
2018-12-06T10:58:06.323Z,39.77
2018-12-06T11:00:39.502Z,40.80
2018-12-06T11:03:13.876Z,43.17
2018-12-06T11:05:41.427Z,39.20
2018-12-06T11:08:08.912Z,40.23
2018-12-06T11:10:36.427Z,43.53
2018-12-06T11:13:03.933Z,36.97
2018-12-06T11:15:31.480Z,39.17
2018-12-06T11:17:59.027Z,39.77
2018-12-06T11:20:26.573Z,38.57
2018-12-06T11:22:54.065Z,38.37
2018-12-06T11:25:51.342Z,40.07
2018-12-06T11:28:18.897Z,38.10
2018-12-06T11:30:46.448Z,34.97
2018-12-06T11:33:13.957Z,33.00
2018-12-06T11:35:41.578Z,32.23
2018-12-06T11:38:09.118Z,32.40
2018-12-06T11:40:36.651Z,32.70
2018-12-06T11:43:04.230Z,32.90
2018-12-06T11:45:31.759Z,31.20
2018-12-06T11:47:59.247Z,28.53
2018-12-06T11:50:26.810Z,30.10
2018-12-06T11:52:54.336Z,32.33
2018-12-06T11:55:21.892Z,31.37
2018-12-06T11:57:49.576Z,31.97
2018-12-06T12:00:17.097Z,31.97
2018-12-06T12:02:44.618Z,31.30
2018-12-06T12:05:12.137Z,31.70
2018-12-06T12:07:39.628Z,28.33
2018-12-06T12:10:07.177Z,29.50
2018-12-06T12:12:34.674Z,31.40
2018-12-06T12:15:02.169Z,31.93
2018-12-06T12:17:29.673Z,34.33
2018-12-06T12:19:57.328Z,36.77
2018-12-06T12:22:24.816Z,31.60
2018-12-06T12:24:52.423Z,31.90
2018-12-06T12:27:19.982Z,31.53
2018-12-06T12:29:47.489Z,31.00
2018-12-06T12:32:15.039Z,31.60
2018-12-06T12:34:42.522Z,31.13
2018-12-06T12:37:10.055Z,32.20
2018-12-06T12:39:37.773Z,28.20
2018-12-06T12:42:05.295Z,29.77
2018-12-06T12:44:32.902Z,25.30
2018-12-06T12:47:00.384Z,27.10
2018-12-06T12:49:28.009Z,26.03
2018-12-06T12:51:55.499Z,24.07
2018-12-06T12:54:23.381Z,24.97
2018-12-06T12:56:50.886Z,26.00
2018-12-06T12:59:18.429Z,23.80
2018-12-06T13:01:45.992Z,22.53
2018-12-06T13:04:13.477Z,21.90
2018-12-06T13:06:40.991Z,20.73
2018-12-06T13:09:08.505Z,17.93
2018-12-06T13:11:35.993Z,18.73
2018-12-06T13:14:03.500Z,18.80
2018-12-06T13:16:30.994Z,16.80
2018-12-06T13:18:58.534Z,18.93
2018-12-06T13:21:26.014Z,19.07
2018-12-06T13:23:53.557Z,18.50
2018-12-06T13:26:21.077Z,18.80
2018-12-06T13:28:48.573Z,19.73
2018-12-06T13:31:16.161Z,16.60
2018-12-06T13:33:44.081Z,18.43
2018-12-06T13:36:11.565Z,16.57
2018-12-06T13:38:39.191Z,18.20
2018-12-06T13:41:06.686Z,16.73
2018-12-06T13:43:34.173Z,15.33
2018-12-06T13:46:01.900Z,16.10
2018-12-06T13:48:29.587Z,15.60
2018-12-06T13:50:57.102Z,16.80
2018-12-06T13:53:24.614Z,17.20
2018-12-06T13:55:52.148Z,15.97
2018-12-06T13:58:20.045Z,15.90
2018-12-06T14:00:47.722Z,15.00
2018-12-06T14:03:15.380Z,16.23
2018-12-06T14:05:42.888Z,17.17
2018-12-06T14:08:10.398Z,18.30
2018-12-06T14:10:37.901Z,19.00
2018-12-06T14:13:05.499Z,17.50
2018-12-06T14:15:32.997Z,17.37
2018-12-06T14:18:00.485Z,17.90
2018-12-06T14:20:28.170Z,18.20
2018-12-06T14:22:55.655Z,19.67
2018-12-06T14:25:23.230Z,17.60
2018-12-06T14:27:50.760Z,19.00
2018-12-06T14:30:18.406Z,18.80
2018-12-06T14:32:45.934Z,18.60
2018-12-06T14:35:13.423Z,19.23
2018-12-06T14:37:40.972Z,19.70
2018-12-06T14:40:08.455Z,20.50
2018-12-06T14:42:35.992Z,21.60
2018-12-06T14:45:04.347Z,21.73
2018-12-06T14:47:31.871Z,23.70
2018-12-06T14:49:59.356Z,21.50
2018-12-06T14:52:26.920Z,22.20
2018-12-06T14:54:54.424Z,22.83
2018-12-06T14:57:21.935Z,23.70
2018-12-06T14:59:49.425Z,22.27
2018-12-06T15:02:16.943Z,23.80
2018-12-06T15:04:44.454Z,23.50
2018-12-06T15:07:11.976Z,24.70
2018-12-06T15:09:39.536Z,23.30
2018-12-06T15:12:07.071Z,24.43
2018-12-06T15:14:34.922Z,25.43
2018-12-06T15:17:02.411Z,24.90
2018-12-06T15:19:30.033Z,23.47
2018-12-06T15:21:57.533Z,24.53
2018-12-06T15:24:25.016Z,25.23
2018-12-06T15:26:52.618Z,25.23
2018-12-06T15:29:20.117Z,25.10
2018-12-06T15:31:47.601Z,26.97
2018-12-06T15:34:15.225Z,26.07
2018-12-06T15:36:42.712Z,27.17
2018-12-06T15:39:10.201Z,27.47
2018-12-06T15:41:37.815Z,27.30
2018-12-06T15:44:05.346Z,27.10
2018-12-06T15:46:32.865Z,27.70
2018-12-06T15:49:00.437Z,24.60
2018-12-06T15:51:27.971Z,26.37
2018-12-06T15:53:55.498Z,24.87
2018-12-06T15:56:23.043Z,22.20
2018-12-06T15:58:50.537Z,23.57
2018-12-06T16:01:18.106Z,21.57
2018-12-06T16:03:45.596Z,20.90
2018-12-06T16:06:13.128Z,21.23
2018-12-06T16:08:40.789Z,19.43
2018-12-06T16:11:08.293Z,17.90
2018-12-06T16:13:35.785Z,20.03
2018-12-06T16:16:03.296Z,16.93
2018-12-06T16:18:30.797Z,17.30
2018-12-06T16:20:58.289Z,18.00
2018-12-06T16:23:25.919Z,20.13
2018-12-06T16:25:53.477Z,17.90
2018-12-06T16:28:21.022Z,18.00
2018-12-06T16:30:48.601Z,19.00
2018-12-06T16:33:16.106Z,19.37
2018-12-06T16:35:43.639Z,17.63
2018-12-06T16:38:11.251Z,20.33
2018-12-06T16:40:38.801Z,18.97
2018-12-06T16:43:06.345Z,20.40
2018-12-06T16:45:33.877Z,21.07
2018-12-06T16:48:01.470Z,18.53
2018-12-06T16:50:29.020Z,21.10
2018-12-06T16:52:56.558Z,20.33
2018-12-06T16:55:24.097Z,26.70
2018-12-06T16:57:51.634Z,23.80
2018-12-06T17:00:19.186Z,23.50
2018-12-06T17:02:46.746Z,22.40
2018-12-06T17:05:14.241Z,23.57
2018-12-06T17:07:41.770Z,23.80
2018-12-06T17:10:09.417Z,22.37
2018-12-06T17:12:36.899Z,21.60
2018-12-06T17:15:04.592Z,21.83
2018-12-06T17:17:32.082Z,20.53
2018-12-06T17:19:59.568Z,22.17
2018-12-06T17:22:27.080Z,20.50
2018-12-06T17:24:54.569Z,22.23
2018-12-06T17:27:22.143Z,23.73
2018-12-06T17:29:49.678Z,21.23
2018-12-06T17:32:17.164Z,21.63
2018-12-06T17:34:44.678Z,20.43
2018-12-06T17:37:12.159Z,20.50
2018-12-06T17:39:39.787Z,18.83
2018-12-06T17:42:07.331Z,20.33
2018-12-06T17:44:35.159Z,21.73
2018-12-06T17:47:02.690Z,22.27
2018-12-06T17:49:30.187Z,22.30
2018-12-06T17:51:57.676Z,21.87
2018-12-06T17:54:25.247Z,20.27
2018-12-06T17:56:52.732Z,23.67
2018-12-06T17:59:20.272Z,20.67
2018-12-06T18:01:47.825Z,20.70
2018-12-06T18:04:15.351Z,19.90
2018-12-06T18:06:42.848Z,22.87
2018-12-06T18:09:10.355Z,20.30
2018-12-06T18:11:38.131Z,22.23
2018-12-06T18:14:05.636Z,22.10
2018-12-06T18:16:33.122Z,21.00
2018-12-06T18:19:00.663Z,23.30
2018-12-06T18:21:28.220Z,21.93
2018-12-06T18:23:55.764Z,25.70
2018-12-06T18:26:23.248Z,23.43
2018-12-06T18:28:50.837Z,23.70
2018-12-06T18:31:18.324Z,24.10
2018-12-06T18:33:45.811Z,24.33
2018-12-06T18:36:13.374Z,25.00
2018-12-06T18:38:40.921Z,24.67
2018-12-06T18:41:08.435Z,25.83
2018-12-06T18:43:35.926Z,25.13
2018-12-06T18:46:03.513Z,25.37
2018-12-06T18:48:31.053Z,24.47
2018-12-06T18:50:58.673Z,25.33
2018-12-06T18:53:26.194Z,25.77
2018-12-06T18:55:53.735Z,26.87
2018-12-06T18:58:21.280Z,26.17
2018-12-06T19:00:48.774Z,26.70
2018-12-06T19:03:16.259Z,25.90
2018-12-06T19:05:43.765Z,28.17
2018-12-06T19:08:11.311Z,26.60
2018-12-06T19:10:38.841Z,29.40
2018-12-06T19:13:06.342Z,29.60
2018-12-06T19:15:33.859Z,29.30
2018-12-06T19:18:01.382Z,28.17
2018-12-06T19:20:28.962Z,30.50
2018-12-06T19:22:56.494Z,31.10
2018-12-06T19:25:23.996Z,27.50
2018-12-06T19:27:51.507Z,31.13
2018-12-06T19:30:18.989Z,29.47
2018-12-06T19:32:46.674Z,28.37
2018-12-06T19:35:14.207Z,31.20
2018-12-06T19:37:42.480Z,32.37
2018-12-06T19:40:10.107Z,31.80
2018-12-06T19:42:38.975Z,32.97
2018-12-06T19:45:06.740Z,32.57
2018-12-06T19:47:34.294Z,32.50
2018-12-06T19:50:01.837Z,34.80
2018-12-06T19:52:29.381Z,31.03
2018-12-06T19:54:56.929Z,33.10
2018-12-06T19:57:24.421Z,31.33
2018-12-06T19:59:51.920Z,33.40
2018-12-06T20:02:19.428Z,31.33
2018-12-06T20:04:46.909Z,33.87
2018-12-06T20:07:14.425Z,32.37
2018-12-06T20:09:41.920Z,33.67
2018-12-06T20:12:09.497Z,31.20
2018-12-06T20:14:37.021Z,33.10
2018-12-06T20:17:04.538Z,31.43
2018-12-06T20:19:32.152Z,32.00
2018-12-06T20:21:59.652Z,30.53
2018-12-06T20:24:27.336Z,29.83
2018-12-06T20:26:54.825Z,27.27
2018-12-06T20:29:22.360Z,28.03
2018-12-06T20:31:50.015Z,28.33
2018-12-06T20:34:17.500Z,28.97
2018-12-06T20:36:45.035Z,29.03
2018-12-06T20:39:12.552Z,27.10
2018-12-06T20:41:40.156Z,28.37
2018-12-06T20:44:07.651Z,30.53
2018-12-06T20:46:35.330Z,29.60
2018-12-06T20:49:02.832Z,28.27
2018-12-06T20:51:30.359Z,28.27
2018-12-06T20:53:57.876Z,28.00
2018-12-06T20:56:25.377Z,31.07
2018-12-06T20:58:52.901Z,30.00
2018-12-06T21:01:20.402Z,28.53
2018-12-06T21:03:48.030Z,26.73
2018-12-06T21:06:15.529Z,29.17
2018-12-06T21:08:43.017Z,26.13
2018-12-06T21:11:10.568Z,26.80
2018-12-06T21:13:38.081Z,27.40
2018-12-06T21:16:05.602Z,24.77
2018-12-06T21:18:33.098Z,25.70
2018-12-06T21:21:00.716Z,26.23
2018-12-06T21:23:28.263Z,24.30
2018-12-06T21:25:55.784Z,23.60
2018-12-06T21:28:23.505Z,23.93
2018-12-06T21:30:51.306Z,23.43
2018-12-06T21:33:18.797Z,23.50
2018-12-06T21:35:46.366Z,24.87
2018-12-06T21:38:13.873Z,24.43
2018-12-06T21:40:41.363Z,25.17
2018-12-06T21:43:08.872Z,22.43
2018-12-06T21:45:36.352Z,19.30
2018-12-06T21:48:03.922Z,21.00
2018-12-06T21:50:31.433Z,21.20
2018-12-06T21:52:58.973Z,17.63
2018-12-06T21:55:26.754Z,19.30
2018-12-06T21:57:54.242Z,19.30
2018-12-06T22:00:21.750Z,18.47
2018-12-06T22:02:49.363Z,17.80
2018-12-06T22:05:16.889Z,17.83
2018-12-06T22:07:44.411Z,14.37
2018-12-06T22:10:11.926Z,14.20
2018-12-06T22:12:39.404Z,12.50
2018-12-06T22:15:06.935Z,11.70
2018-12-06T22:17:34.479Z,12.53
2018-12-06T22:20:02.022Z,12.23
2018-12-06T22:22:29.569Z,11.50
2018-12-06T22:24:57.061Z,10.50
2018-12-06T22:27:24.609Z,12.10
2018-12-06T22:29:52.107Z,11.43
2018-12-06T22:32:19.600Z,11.33
2018-12-06T22:34:47.152Z,9.60
2018-12-06T22:37:14.674Z,10.80
2018-12-06T22:39:42.186Z,10.50
2018-12-06T22:42:09.684Z,12.03
2018-12-06T22:44:37.294Z,10.70
2018-12-06T22:47:04.877Z,11.33
2018-12-06T22:49:32.387Z,9.87
2018-12-06T22:51:59.930Z,10.67
2018-12-06T22:54:27.541Z,10.33
2018-12-06T22:56:55.049Z,10.73
2018-12-06T22:59:22.596Z,10.20
2018-12-06T23:01:50.139Z,9.30
2018-12-06T23:04:17.696Z,9.53
2018-12-06T23:06:45.249Z,8.90
2018-12-06T23:09:12.738Z,10.67
2018-12-06T23:11:40.240Z,9.40
2018-12-06T23:14:07.774Z,9.77
2018-12-06T23:16:35.579Z,8.93
2018-12-06T23:19:03.258Z,9.43
2018-12-06T23:21:30.776Z,10.30
2018-12-06T23:23:58.381Z,9.07
2018-12-06T23:26:25.874Z,9.00
2018-12-06T23:28:53.355Z,9.03
2018-12-06T23:31:20.951Z,10.37
2018-12-06T23:33:48.438Z,9.87
2018-12-06T23:36:15.933Z,9.43
2018-12-06T23:38:43.438Z,10.60
2018-12-06T23:41:10.920Z,11.70
2018-12-06T23:43:38.498Z,10.20
2018-12-06T23:46:05.989Z,9.50
2018-12-06T23:48:33.481Z,10.70
2018-12-06T23:51:12.976Z,10.57
2018-12-06T23:53:40.629Z,10.00
2018-12-06T23:56:08.114Z,10.47
2018-12-06T23:58:35.651Z,9.33
